createdAt,value
2019-04-21T00:01:07.124Z,10.30
2019-04-21T00:03:40.678Z,10.30
2019-04-21T00:06:22.515Z,10.30
2019-04-21T00:08:57.872Z,10.30
2019-04-21T00:11:29.931Z,10.30
2019-04-21T00:13:52.208Z,10.30
2019-04-21T00:16:16.203Z,10.30
2019-04-21T00:19:05.329Z,10.20
2019-04-21T00:21:39.637Z,10.20
2019-04-21T00:24:25.111Z,10.20
2019-04-21T00:27:17.441Z,10.20
2019-04-21T00:29:38.538Z,10.20
2019-04-21T00:32:01.699Z,10.10
2019-04-21T00:34:19.563Z,10.10
2019-04-21T00:37:00.141Z,10.00
2019-04-21T00:39:45.077Z,10.00
2019-04-21T00:42:11.539Z,10.00
2019-04-21T00:44:35.837Z,9.90
2019-04-21T00:47:05.468Z,9.90
2019-04-21T00:49:42.744Z,9.90
2019-04-21T00:52:49.213Z,9.80
2019-04-21T00:55:14.220Z,9.80
2019-04-21T00:57:38.897Z,9.70
2019-04-21T01:00:10.180Z,9.70
2019-04-21T01:02:47.153Z,9.70
2019-04-21T01:05:10.894Z,9.70
2019-04-21T01:07:41.969Z,9.60
2019-04-21T01:10:06.429Z,9.60
2019-04-21T01:12:41.933Z,9.60
2019-04-21T01:15:22.400Z,9.50
2019-04-21T01:17:50.497Z,9.50
2019-04-21T01:20:12.174Z,9.50
2019-04-21T01:22:27.000Z,9.40
2019-04-21T01:25:05.806Z,9.40
2019-04-21T01:27:50.739Z,9.30
2019-04-21T01:30:22.318Z,9.30
2019-04-21T01:32:53.243Z,9.20
2019-04-21T01:35:25.456Z,9.20
2019-04-21T01:37:57.622Z,9.20
2019-04-21T01:40:37.240Z,9.10
2019-04-21T01:42:56.761Z,9.10
2019-04-21T01:45:26.538Z,9.10
2019-04-21T01:48:03.576Z,9.10
2019-04-21T01:50:28.959Z,9.10
2019-04-21T01:53:19.757Z,9.00
2019-04-21T01:55:48.564Z,9.00
2019-04-21T01:58:19.385Z,9.00
2019-04-21T02:00:59.456Z,8.90
2019-04-21T02:03:50.130Z,8.90
2019-04-21T02:06:15.929Z,8.80
2019-04-21T02:08:34.131Z,8.70
2019-04-21T02:11:11.270Z,8.70
2019-04-21T02:13:35.455Z,8.70
2019-04-21T02:16:12.574Z,8.60
2019-04-21T02:18:42.190Z,8.50
2019-04-21T02:21:00.155Z,8.40
2019-04-21T02:23:46.510Z,8.40
2019-04-21T02:26:16.390Z,8.30
2019-04-21T02:28:50.520Z,8.20
2019-04-21T02:31:33.096Z,8.10
2019-04-21T02:34:00.394Z,8.10
2019-04-21T02:39:06.229Z,8.00
2019-04-21T02:41:42.614Z,8.00
2019-04-21T02:46:37.924Z,7.90
2019-04-21T02:49:17.179Z,7.80
2019-04-21T02:51:52.752Z,7.80
2019-04-21T02:56:48.170Z,7.60
2019-04-21T02:59:28.509Z,7.60
2019-04-21T03:02:16.295Z,7.50
2019-04-21T03:07:31.896Z,7.40
2019-04-21T03:09:53.055Z,7.30
2019-04-21T03:12:22.213Z,7.20
2019-04-21T03:15:15.630Z,7.20
2019-04-21T03:17:29.255Z,7.10
2019-04-21T03:20:00.846Z,7.00
2019-04-21T03:27:50.275Z,6.90
2019-04-21T03:30:10.968Z,6.80
2019-04-21T03:37:37.232Z,6.80
2019-04-21T03:42:48.257Z,6.70
2019-04-21T03:45:28.439Z,6.70
2019-04-21T03:47:43.157Z,6.60
2019-04-21T03:50:23.861Z,6.70
2019-04-21T03:52:53.410Z,6.60
2019-04-21T04:08:43.747Z,6.70
2019-04-21T04:11:12.749Z,6.70
2019-04-21T04:13:47.322Z,6.70
2019-04-21T04:16:06.914Z,6.70
2019-04-21T04:18:53.160Z,6.70
2019-04-21T04:21:12.214Z,6.70
2019-04-21T04:23:45.263Z,6.70
2019-04-21T04:26:19.356Z,6.70
2019-04-21T04:29:04.230Z,6.70
2019-04-21T04:31:25.943Z,6.80
2019-04-21T04:42:03.609Z,6.90
2019-04-21T04:44:46.368Z,7.00
2019-04-21T04:47:05.470Z,7.00
2019-04-21T04:52:27.825Z,7.10
2019-04-21T05:04:46.139Z,7.40
2019-04-21T05:07:17.285Z,7.50
2019-04-21T05:12:11.315Z,7.70
2019-04-21T05:14:46.678Z,7.80
2019-04-21T05:17:24.866Z,7.80
2019-04-21T05:20:03.627Z,7.90
2019-04-21T05:22:22.276Z,8.00
2019-04-21T05:24:37.717Z,8.10
2019-04-21T05:27:08.672Z,8.20
2019-04-21T05:29:55.669Z,8.30
2019-04-21T05:32:26.492Z,8.40
2019-04-21T05:35:00.213Z,8.50
2019-04-21T05:37:43.713Z,8.60
2019-04-21T05:40:12.253Z,8.80
2019-04-21T05:42:39.937Z,8.90
2019-04-21T05:45:38.724Z,9.00
2019-04-21T05:48:03.238Z,9.00
2019-04-21T05:50:30.587Z,9.10
2019-04-21T05:53:00.759Z,9.30
2019-04-21T05:55:49.175Z,9.40
2019-04-21T05:58:25.958Z,9.50
2019-04-21T06:00:59.197Z,9.50
2019-04-21T06:03:18.115Z,9.60
2019-04-21T06:05:53.511Z,9.80
2019-04-21T06:08:16.013Z,9.90
2019-04-21T06:10:50.835Z,10.00
2019-04-21T06:13:18.714Z,10.10
2019-04-21T06:16:03.489Z,10.20
2019-04-21T06:18:29.659Z,10.20
2019-04-21T06:20:54.596Z,10.30
2019-04-21T06:23:25.745Z,10.40
2019-04-21T06:26:11.813Z,10.50
2019-04-21T06:28:30.307Z,10.60
2019-04-21T06:31:08.088Z,10.80
2019-04-21T06:33:45.983Z,10.90
2019-04-21T06:39:04.643Z,11.10
2019-04-21T06:41:31.138Z,11.20
2019-04-21T06:46:35.495Z,11.40
2019-04-21T06:49:03.106Z,11.50
2019-04-21T06:51:46.887Z,11.60
2019-04-21T06:54:10.204Z,11.70
2019-04-21T06:56:42.418Z,11.80
2019-04-21T06:59:21.113Z,11.90
2019-04-21T07:01:45.614Z,12.00
2019-04-21T07:04:18.857Z,12.10
2019-04-21T07:09:22.419Z,12.30
2019-04-21T07:11:44.966Z,12.40
2019-04-21T07:14:30.253Z,12.50
2019-04-21T07:16:51.016Z,12.50
2019-04-21T07:19:30.783Z,12.60
2019-04-21T07:21:51.062Z,12.70
2019-04-21T07:24:26.304Z,12.90
2019-04-21T07:26:55.616Z,13.00
2019-04-21T07:29:28.566Z,13.10
2019-04-21T07:32:04.338Z,13.30
2019-04-21T07:34:33.338Z,13.40
2019-04-21T07:37:04.414Z,13.50
2019-04-21T07:39:29.721Z,13.70
2019-04-21T07:42:00.900Z,13.70
2019-04-21T07:44:31.859Z,13.90
2019-04-21T07:47:01.138Z,14.00
2019-04-21T07:49:44.608Z,14.10
2019-04-21T07:52:29.045Z,14.20
2019-04-21T07:55:05.615Z,14.30
2019-04-21T07:57:23.446Z,14.40
2019-04-21T08:02:29.163Z,14.50
2019-04-21T08:05:07.834Z,14.60
2019-04-21T08:07:44.945Z,14.70
2019-04-21T08:10:03.439Z,14.80
2019-04-21T08:12:31.501Z,14.90
2019-04-21T08:15:18.157Z,15.10
2019-04-21T08:20:11.358Z,15.30
2019-04-21T08:22:48.019Z,15.40
2019-04-21T08:25:16.025Z,15.60
2019-04-21T08:27:47.753Z,15.70
2019-04-21T08:30:19.085Z,15.80
2019-04-21T08:33:02.301Z,15.90
2019-04-21T08:37:50.815Z,16.10
2019-04-21T08:40:29.075Z,16.20
2019-04-21T08:43:02.536Z,16.30
2019-04-21T08:45:33.596Z,16.40
2019-04-21T08:47:58.209Z,16.50
2019-04-21T08:50:25.648Z,16.70
2019-04-21T08:52:59.800Z,16.80
2019-04-21T08:55:40.026Z,17.00
2019-04-21T08:58:15.476Z,17.10
2019-04-21T09:00:56.230Z,17.20
2019-04-21T09:03:43.413Z,17.30
2019-04-21T09:06:13.716Z,17.40
2019-04-21T09:08:46.266Z,17.60
2019-04-21T09:11:13.059Z,17.70
2019-04-21T09:13:44.492Z,17.80
2019-04-21T09:16:18.833Z,17.80
2019-04-21T09:18:42.043Z,17.90
2019-04-21T09:21:19.384Z,18.00
2019-04-21T09:23:54.038Z,18.00
2019-04-21T09:26:26.316Z,18.10
2019-04-21T09:28:49.409Z,18.10
2019-04-21T09:31:08.488Z,18.20
2019-04-21T09:33:45.413Z,18.30
2019-04-21T09:36:14.312Z,18.40
2019-04-21T09:38:43.838Z,18.60
2019-04-21T09:41:16.218Z,18.80
2019-04-21T09:43:46.641Z,18.90
2019-04-21T09:46:16.044Z,18.90
2019-04-21T09:48:55.624Z,19.00
2019-04-21T09:51:19.986Z,19.00
2019-04-21T09:53:58.698Z,19.10
2019-04-21T09:56:31.510Z,19.20
2019-04-21T09:59:04.094Z,19.30
2019-04-21T10:01:30.910Z,19.30
2019-04-21T10:04:00.066Z,19.40
2019-04-21T10:06:26.765Z,19.50
2019-04-21T10:09:02.799Z,19.60
2019-04-21T10:11:28.803Z,19.80
2019-04-21T10:14:00.829Z,19.90
2019-04-21T10:16:36.289Z,20.10
2019-04-21T10:19:06.906Z,20.20
2019-04-21T10:21:38.091Z,20.40
2019-04-21T10:24:08.269Z,20.50
2019-04-21T10:26:38.082Z,20.60
2019-04-21T10:29:14.774Z,20.60
2019-04-21T10:31:39.189Z,20.70
2019-04-21T10:34:09.350Z,20.80
2019-04-21T10:36:39.069Z,20.80
2019-04-21T10:39:09.414Z,20.90
2019-04-21T10:41:41.391Z,21.10
2019-04-21T10:44:11.509Z,21.30
2019-04-21T10:46:42.520Z,21.40
2019-04-21T10:49:12.751Z,21.40
2019-04-21T10:51:43.368Z,21.50
2019-04-21T10:54:15.735Z,21.50
2019-04-21T10:56:46.104Z,21.60
2019-04-21T10:59:16.256Z,21.60
2019-04-21T11:01:47.116Z,21.70
2019-04-21T11:04:33.713Z,21.70
2019-04-21T11:07:06.986Z,21.70
2019-04-21T11:09:32.072Z,21.90
2019-04-21T11:12:02.069Z,22.00
2019-04-21T11:14:31.829Z,22.20
2019-04-21T11:17:01.543Z,22.30
2019-04-21T11:19:31.179Z,22.30
2019-04-21T11:22:01.081Z,22.40
2019-04-21T11:24:31.379Z,22.50
2019-04-21T11:27:01.844Z,22.50
2019-04-21T11:29:33.059Z,22.70
2019-04-21T11:32:03.031Z,22.70
2019-04-21T11:34:33.888Z,22.70
2019-04-21T11:37:04.530Z,22.70
2019-04-21T11:39:42.055Z,22.70
2019-04-21T11:42:07.841Z,22.90
2019-04-21T11:44:37.586Z,23.10
2019-04-21T11:47:10.148Z,23.20
2019-04-21T11:49:41.154Z,23.40
2019-04-21T11:52:11.351Z,23.30
2019-04-21T11:54:42.674Z,23.50
2019-04-21T11:57:20.582Z,23.50
2019-04-21T11:59:45.888Z,23.60
2019-04-21T12:02:15.656Z,23.80
2019-04-21T12:04:45.450Z,24.10
2019-04-21T12:07:15.471Z,24.30
2019-04-21T12:09:45.735Z,24.60
2019-04-21T12:12:15.536Z,24.80
2019-04-21T12:14:45.918Z,25.00
2019-04-21T12:17:16.315Z,25.20
2019-04-21T12:19:46.235Z,25.20
2019-04-21T12:22:21.357Z,25.30
2019-04-21T12:24:47.348Z,25.40
2019-04-21T12:27:18.133Z,25.50
2019-04-21T12:29:48.019Z,25.70
2019-04-21T12:32:30.524Z,25.80
2019-04-21T12:35:01.693Z,25.90
2019-04-21T12:37:33.008Z,26.00
2019-04-21T12:40:03.276Z,26.20
2019-04-21T12:42:34.569Z,26.30
2019-04-21T12:45:07.567Z,26.40
2019-04-21T12:47:37.806Z,26.30
2019-04-21T12:50:10.963Z,26.20
2019-04-21T12:52:41.947Z,26.20
2019-04-21T12:55:13.574Z,26.10
2019-04-21T12:57:43.587Z,26.10
2019-04-21T13:00:16.061Z,26.20
2019-04-21T13:02:45.712Z,26.40
2019-04-21T13:05:15.892Z,26.60
2019-04-21T13:07:46.867Z,26.40
2019-04-21T13:10:18.507Z,26.40
2019-04-21T13:12:48.260Z,26.30
2019-04-21T13:15:17.988Z,26.20
2019-04-21T13:17:47.706Z,26.10
2019-04-21T13:20:17.567Z,26.00
2019-04-21T13:22:48.201Z,26.00
2019-04-21T13:25:18.392Z,26.10
2019-04-21T13:27:49.229Z,26.40
2019-04-21T13:30:20.124Z,26.20
2019-04-21T13:32:51.248Z,26.30
2019-04-21T13:35:21.291Z,26.40
2019-04-21T13:37:52.298Z,26.30
2019-04-21T13:40:39.827Z,26.20
2019-04-21T13:42:58.837Z,26.20
2019-04-21T13:45:27.750Z,26.10
2019-04-21T13:47:58.740Z,26.00
2019-04-21T13:50:29.068Z,26.00
2019-04-21T13:52:58.787Z,25.90
2019-04-21T13:55:29.608Z,25.80
2019-04-21T13:57:59.235Z,25.70
2019-04-21T14:00:29.653Z,25.40
2019-04-21T14:03:00.833Z,25.20
2019-04-21T14:05:30.785Z,25.20
2019-04-21T14:08:01.010Z,25.20
2019-04-21T14:10:31.537Z,25.20
2019-04-21T14:13:02.548Z,25.30
2019-04-21T14:15:32.499Z,25.30
2019-04-21T14:18:02.817Z,25.30
2019-04-21T14:20:33.309Z,25.50
2019-04-21T14:23:13.750Z,25.50
2019-04-21T14:25:35.477Z,25.50
2019-04-21T14:28:06.109Z,25.50
2019-04-21T14:30:36.519Z,25.40
2019-04-21T14:33:07.789Z,25.30
2019-04-21T14:35:38.946Z,25.20
2019-04-21T14:38:09.054Z,25.10
2019-04-21T14:40:38.958Z,25.00
2019-04-21T14:43:10.057Z,25.00
2019-04-21T14:45:42.842Z,24.90
2019-04-21T14:48:30.695Z,24.50
2019-04-21T14:51:11.239Z,24.30
2019-04-21T14:53:43.624Z,24.20
2019-04-21T14:56:13.404Z,24.10
2019-04-21T14:58:43.262Z,24.00
2019-04-21T15:01:13.697Z,24.00
2019-04-21T15:03:43.785Z,23.90
2019-04-21T15:06:13.541Z,23.80
2019-04-21T15:08:43.309Z,23.70
2019-04-21T15:11:13.960Z,23.60
2019-04-21T15:13:45.838Z,23.40
2019-04-21T15:16:15.592Z,23.30
2019-04-21T15:18:46.497Z,23.20
2019-04-21T15:21:17.356Z,23.00
2019-04-21T15:23:48.372Z,22.20
2019-04-21T15:26:18.205Z,21.90
2019-04-21T15:28:48.866Z,21.20
2019-04-21T15:31:23.821Z,21.20
2019-04-21T15:33:49.948Z,21.10
2019-04-21T15:36:20.938Z,21.10
2019-04-21T15:38:51.986Z,20.70
2019-04-21T15:41:24.592Z,20.80
2019-04-21T15:43:54.394Z,20.70
2019-04-21T15:46:24.847Z,20.70
2019-04-21T15:48:55.124Z,20.70
2019-04-21T15:51:25.967Z,20.80
2019-04-21T15:53:57.487Z,20.80
2019-04-21T15:56:32.921Z,20.80
2019-04-21T15:59:06.461Z,20.70
2019-04-21T16:01:40.827Z,20.50
2019-04-21T16:04:10.865Z,20.50
2019-04-21T16:06:41.609Z,20.60
2019-04-21T16:09:16.721Z,20.70
2019-04-21T16:11:46.142Z,20.50
2019-04-21T16:14:16.684Z,20.30
2019-04-21T16:16:47.454Z,20.10
2019-04-21T16:19:18.434Z,20.00
2019-04-21T16:21:48.711Z,19.90
2019-04-21T16:24:18.533Z,19.80
2019-04-21T16:26:48.779Z,19.60
2019-04-21T16:29:18.669Z,19.40
2019-04-21T16:31:49.092Z,19.30
2019-04-21T16:34:19.933Z,19.20
2019-04-21T16:36:49.814Z,19.10
2019-04-21T16:39:19.764Z,19.10
2019-04-21T16:41:49.996Z,19.00
2019-04-21T16:44:21.041Z,18.90
2019-04-21T16:46:51.651Z,18.80
2019-04-21T16:49:22.064Z,18.80
2019-04-21T16:51:53.970Z,18.70
2019-04-21T16:54:26.241Z,18.60
2019-04-21T16:56:57.644Z,18.60
2019-04-21T16:59:28.908Z,18.50
2019-04-21T17:02:00.628Z,18.40
2019-04-21T17:04:30.727Z,18.30
2019-04-21T17:07:00.989Z,18.20
2019-04-21T17:09:32.638Z,18.10
2019-04-21T17:12:06.367Z,18.00
2019-04-21T17:14:49.467Z,17.90
2019-04-21T17:17:26.306Z,17.80
2019-04-21T17:19:44.981Z,17.70
2019-04-21T17:22:09.880Z,17.60
2019-04-21T17:24:40.274Z,17.40
2019-04-21T17:27:11.187Z,17.30
2019-04-21T17:29:40.926Z,17.10
2019-04-21T17:32:12.113Z,16.90
2019-04-21T17:34:41.835Z,16.80
2019-04-21T17:37:12.770Z,16.60
2019-04-21T17:39:43.007Z,16.50
2019-04-21T17:42:24.122Z,16.40
2019-04-21T17:44:45.163Z,16.20
2019-04-21T17:47:25.308Z,16.10
2019-04-21T17:49:50.821Z,16.00
2019-04-21T17:52:43.716Z,15.80
2019-04-21T17:55:21.262Z,15.60
2019-04-21T17:58:06.574Z,15.50
2019-04-21T18:01:09.251Z,15.40
2019-04-21T18:03:25.286Z,15.30
2019-04-21T18:05:43.551Z,15.20
2019-04-21T18:08:19.082Z,15.10
2019-04-21T18:10:45.779Z,15.00
2019-04-21T18:13:06.542Z,15.00
2019-04-21T18:15:49.295Z,14.90
2019-04-21T18:18:03.042Z,14.80
2019-04-21T18:20:37.901Z,14.60
2019-04-21T18:23:35.132Z,14.60
2019-04-21T18:26:04.926Z,14.50
2019-04-21T18:28:28.679Z,14.30
2019-04-21T18:31:06.893Z,14.30
2019-04-21T18:33:40.888Z,14.10
2019-04-21T18:36:25.055Z,14.00
2019-04-21T18:39:21.884Z,13.90
2019-04-21T18:42:02.477Z,13.80
2019-04-21T18:44:53.760Z,13.70
2019-04-21T18:47:22.505Z,13.50
2019-04-21T18:49:35.377Z,13.40
2019-04-21T18:52:19.215Z,13.30
2019-04-21T18:54:54.806Z,13.30
2019-04-21T18:57:20.499Z,13.20
2019-04-21T18:59:45.765Z,13.10
2019-04-21T19:02:17.541Z,13.00
2019-04-21T19:04:48.433Z,12.90
2019-04-21T19:07:37.860Z,12.80
2019-04-21T19:10:22.573Z,12.70
2019-04-21T19:13:33.265Z,12.60
2019-04-21T19:15:10.734Z,12.50
2019-04-21T19:18:29.641Z,12.40
2019-04-21T19:20:19.406Z,12.30
2019-04-21T19:22:48.714Z,12.20
2019-04-21T19:25:31.470Z,12.00
2019-04-21T19:27:52.897Z,11.90
2019-04-21T19:30:28.791Z,11.80
2019-04-21T19:32:54.567Z,11.80
2019-04-21T19:35:09.410Z,11.60
2019-04-21T19:37:49.596Z,11.60
2019-04-21T19:40:31.648Z,11.50
2019-04-21T19:42:53.333Z,11.50
2019-04-21T19:45:29.720Z,11.40
2019-04-21T19:48:08.159Z,11.30
2019-04-21T19:50:40.992Z,11.20
2019-04-21T19:53:01.263Z,11.10
2019-04-21T19:55:22.335Z,11.10
2019-04-21T19:57:52.689Z,10.90
2019-04-21T20:00:22.700Z,10.90
2019-04-21T20:02:52.455Z,10.90
2019-04-21T20:05:32.710Z,10.80
2019-04-21T20:08:16.338Z,10.80
2019-04-21T20:10:44.516Z,10.70
2019-04-21T20:13:25.938Z,10.70
2019-04-21T20:15:44.795Z,10.60
2019-04-21T20:18:14.050Z,10.50
2019-04-21T20:20:31.101Z,10.40
2019-04-21T20:23:01.299Z,10.40
2019-04-21T20:25:39.345Z,10.40
2019-04-21T20:28:09.558Z,10.30
2019-04-21T20:30:53.202Z,10.30
2019-04-21T20:33:42.818Z,10.20
2019-04-21T20:35:57.091Z,10.10
2019-04-21T20:38:19.101Z,10.00
2019-04-21T20:40:45.336Z,10.00
2019-04-21T20:43:32.190Z,10.00
2019-04-21T20:46:02.352Z,9.90
2019-04-21T20:48:25.231Z,9.90
2019-04-21T20:51:06.168Z,9.90
2019-04-21T20:53:32.751Z,9.80
2019-04-21T20:56:00.941Z,9.70
2019-04-21T20:58:34.651Z,9.70
2019-04-21T21:01:33.197Z,9.60
2019-04-21T21:03:39.323Z,9.50
2019-04-21T21:06:08.078Z,9.50
2019-04-21T21:08:40.267Z,9.40
2019-04-21T21:11:08.206Z,9.30
2019-04-21T21:13:44.362Z,9.30
2019-04-21T21:16:36.920Z,9.30
2019-04-21T21:19:03.695Z,9.30
2019-04-21T21:21:18.374Z,9.20
2019-04-21T21:23:47.789Z,9.10
2019-04-21T21:26:25.772Z,9.00
2019-04-21T21:28:43.006Z,9.00
2019-04-21T21:31:26.553Z,9.00
2019-04-21T21:36:27.535Z,8.80
2019-04-21T21:39:01.365Z,8.80
2019-04-21T21:41:19.938Z,8.70
2019-04-21T21:43:45.208Z,8.70
2019-04-21T21:46:31.216Z,8.60
2019-04-21T21:48:56.245Z,8.60
2019-04-21T21:51:29.076Z,8.60
2019-04-21T21:53:48.626Z,8.60
2019-04-21T21:56:18.587Z,8.50
2019-04-21T21:58:50.100Z,8.40
2019-04-21T22:01:29.008Z,8.40
2019-04-21T22:03:59.108Z,8.30
2019-04-21T22:06:29.140Z,8.20
2019-04-21T22:08:54.720Z,8.20
2019-04-21T22:11:24.436Z,8.20
2019-04-21T22:14:02.469Z,8.20
2019-04-21T22:16:38.897Z,8.20
2019-04-21T22:19:14.174Z,8.10
2019-04-21T22:21:50.089Z,8.10
2019-04-21T22:24:06.678Z,8.10
2019-04-21T22:26:31.304Z,8.20
2019-04-21T22:29:01.442Z,8.10
2019-04-21T22:31:35.242Z,8.10
2019-04-21T22:34:07.033Z,8.10
2019-04-21T22:36:47.122Z,8.10
2019-04-21T22:39:27.081Z,8.10
2019-04-21T22:41:44.832Z,8.10
2019-04-21T22:44:18.974Z,8.10
2019-04-21T22:46:59.957Z,8.00
2019-04-21T22:49:22.324Z,8.00
2019-04-21T22:51:53.788Z,8.00
2019-04-21T22:54:29.636Z,8.00
2019-04-21T22:57:01.633Z,8.00
2019-04-21T22:59:27.914Z,8.00
2019-04-21T23:01:57.700Z,8.00
2019-04-21T23:04:35.853Z,8.00
2019-04-21T23:07:05.533Z,7.90
2019-04-21T23:09:33.109Z,7.90
2019-04-21T23:12:03.328Z,7.90
2019-04-21T23:14:46.746Z,7.90
2019-04-21T23:17:29.236Z,7.90
2019-04-21T23:19:53.785Z,7.90
2019-04-21T23:22:31.258Z,7.80
2019-04-21T23:24:57.543Z,7.80
2019-04-21T23:27:23.824Z,7.80
2019-04-21T23:30:09.966Z,7.80
2019-04-21T23:32:29.165Z,7.80
2019-04-21T23:34:45.966Z,7.80
2019-04-21T23:37:20.254Z,7.70
2019-04-21T23:39:47.795Z,7.70
2019-04-21T23:42:24.654Z,7.70
2019-04-21T23:44:52.931Z,7.70
2019-04-21T23:47:35.574Z,7.60
2019-04-21T23:50:00.258Z,7.60
2019-04-21T23:52:23.753Z,7.60
2019-04-21T23:54:53.655Z,7.50
2019-04-21T23:57:31.728Z,7.50
2019-04-21T23:59:57.128Z,7.50
